CheckWX is a tool to help pilots better visualize weather data.  It is not intended as a substitute for an official pre-flight weather briefing.

17:54:23 UTC

KIFP METAR
Laughlin / Bullhead International Airport
Bullhead City, Arizona, USA
Current

1 hour ago

KIFP 171649Z 00000KT 20SM BKN120 23/01 A2972
Observed
Oct-17 @ 16:49 UTC
Visibility
20 SM
Flight Rules
VFR
Cloud Levels
  • Broken at 12,000' AGL
Temperature
23°C / 73°F
Dewpoint
C / 34°F
Humidity
23%
Altimeter
29.72" Hg
Pressure
1006.42 hPa
Previous

2 hours ago

KIFP 171548Z 00000KT 20SM BKN120 21/M01 A2973
Observed
Oct-17 @ 15:48 UTC
Visibility
20 SM
Flight Rules
VFR
Cloud Levels
  • Broken at 12,000' AGL
Temperature
21°C / 70°F
Dewpoint
-1°C / 30°F
Humidity
23%
Altimeter
29.73" Hg
Pressure
1006.82 hPa
Previous

3 hours ago

KIFP 171448Z 00000KT 10SM BKN150 19/M01 A2971
Observed
Oct-17 @ 14:48 UTC
Visibility
10 SM
Flight Rules
VFR
Cloud Levels
  • Broken at 15,000' AGL
Temperature
19°C / 66°F
Dewpoint
-1°C / 30°F
Humidity
26%
Altimeter
29.71" Hg
Pressure
1006.12 hPa